sensor_id;sensor_type;location;lat;lon;timestamp;pressure;altitude;pressure_sealevel;temperature;humidity
70304;BME280;57712;48.752;11.348;2024-03-23T00:54:02;96865.75;;;10.32;100.00
70304;BME280;57712;48.752;11.348;2024-03-23T00:56:29;96869.91;;;10.21;100.00
70304;BME280;57712;48.752;11.348;2024-03-23T00:58:54;96863.66;;;10.20;100.00
70304;BME280;57712;48.752;11.348;2024-03-23T01:01:20;96851.72;;;10.14;100.00
70304;BME280;57712;48.752;11.348;2024-03-23T01:03:46;96858.59;;;10.06;100.00
70304;BME280;57712;48.752;11.348;2024-03-23T01:06:12;96845.63;;;9.94;100.00
70304;BME280;57712;48.752;11.348;2024-03-23T01:08:37;96840.16;;;9.94;100.00
70304;BME280;57712;48.752;11.348;2024-03-23T01:11:03;96843.66;;;9.94;100.00
70304;BME280;57712;48.752;11.348;2024-03-23T01:13:30;96840.41;;;9.83;100.00
70304;BME280;57712;48.752;11.348;2024-03-23T01:15:56;96846.75;;;9.80;100.00
70304;BME280;57712;48.752;11.348;2024-03-23T01:18:23;96839.81;;;9.75;100.00
70304;BME280;57712;48.752;11.348;2024-03-23T01:20:49;96844.53;;;9.75;100.00
70304;BME280;57712;48.752;11.348;2024-03-23T01:23:15;96843.09;;;9.70;100.00
70304;BME280;57712;48.752;11.348;2024-03-23T01:25:41;96842.22;;;9.57;100.00
70304;BME280;57712;48.752;11.348;2024-03-23T01:28:07;96840.03;;;9.52;100.00
70304;BME280;57712;48.752;11.348;2024-03-23T01:30:33;96837.44;;;9.45;100.00
70304;BME280;57712;48.752;11.348;2024-03-23T01:32:59;96838.31;;;9.42;100.00
70304;BME280;57712;48.752;11.348;2024-03-23T01:35:24;96834.47;;;9.39;100.00
70304;BME280;57712;48.752;11.348;2024-03-23T01:37:50;96839.81;;;9.26;100.00
70304;BME280;57712;48.752;11.348;2024-03-23T01:40:16;96830.19;;;9.22;100.00
70304;BME280;57712;48.752;11.348;2024-03-23T01:42:42;96819.41;;;9.15;100.00
70304;BME280;57712;48.752;11.348;2024-03-23T01:45:08;96814.72;;;9.15;100.00
70304;BME280;57712;48.752;11.348;2024-03-23T01:47:35;96822.66;;;9.10;100.00
70304;BME280;57712;48.752;11.348;2024-03-23T01:50:01;96812.66;;;9.03;100.00
70304;BME280;57712;48.752;11.348;2024-03-23T01:52:27;96812.59;;;9.07;100.00
70304;BME280;57712;48.752;11.348;2024-03-23T01:54:53;96803.69;;;9.03;100.00
70304;BME280;57712;48.752;11.348;2024-03-23T01:57:22;96807.91;;;9.07;100.00
70304;BME280;57712;48.752;11.348;2024-03-23T01:59:48;96797.03;;;9.04;100.00
70304;BME280;57712;48.752;11.348;2024-03-23T02:02:13;96801.81;;;9.16;100.00
70304;BME280;57712;48.752;11.348;2024-03-23T02:04:39;96790.50;;;9.17;100.00
70304;BME280;57712;48.752;11.348;2024-03-23T02:07:08;96794.22;;;9.23;100.00
70304;BME280;57712;48.752;11.348;2024-03-23T02:09:34;96785.09;;;9.30;100.00
70304;BME280;57712;48.752;11.348;2024-03-23T02:12:01;96789.22;;;9.38;100.00
70304;BME280;57712;48.752;11.348;2024-03-23T02:14:27;96777.66;;;9.31;100.00
70304;BME280;57712;48.752;11.348;2024-03-23T02:16:53;96776.31;;;9.39;100.00
70304;BME280;57712;48.752;11.348;2024-03-23T02:19:18;96776.72;;;9.37;100.00
70304;BME280;57712;48.752;11.348;2024-03-23T02:21:44;96771.06;;;9.44;100.00
70304;BME280;57712;48.752;11.348;2024-03-23T02:24:09;96764.16;;;9.40;100.00
70304;BME280;57712;48.752;11.348;2024-03-23T02:26:35;96765.34;;;9.55;100.00
70304;BME280;57712;48.752;11.348;2024-03-23T02:29:01;96753.63;;;9.54;100.00
70304;BME280;57712;48.752;11.348;2024-03-23T02:31:27;96749.63;;;9.59;100.00
70304;BME280;57712;48.752;11.348;2024-03-23T02:33:52;96746.88;;;9.59;100.00
70304;BME280;57712;48.752;11.348;2024-03-23T02:36:18;96741.75;;;9.61;100.00
70304;BME280;57712;48.752;11.348;2024-03-23T02:38:44;96740.69;;;9.71;100.00
70304;BME280;57712;48.752;11.348;2024-03-23T02:41:10;96734.47;;;9.71;100.00
70304;BME280;57712;48.752;11.348;2024-03-23T02:43:36;96741.38;;;9.75;100.00
70304;BME280;57712;48.752;11.348;2024-03-23T02:46:01;96730.03;;;9.90;100.00
70304;BME280;57712;48.752;11.348;2024-03-23T02:48:28;96727.06;;;9.84;100.00
70304;BME280;57712;48.752;11.348;2024-03-23T02:50:54;96726.97;;;9.88;100.00
70304;BME280;57712;48.752;11.348;2024-03-23T02:53:20;96723.50;;;10.00;100.00
70304;BME280;57712;48.752;11.348;2024-03-23T02:55:45;96704.59;;;10.05;100.00
70304;BME280;57712;48.752;11.348;2024-03-23T02:58:11;96708.97;;;10.03;100.00
70304;BME280;57712;48.752;11.348;2024-03-23T03:00:37;96695.06;;;10.10;100.00
70304;BME280;57712;48.752;11.348;2024-03-23T03:03:03;96702.09;;;10.11;100.00
70304;BME280;57712;48.752;11.348;2024-03-23T03:05:28;96701.44;;;10.20;100.00
70304;BME280;57712;48.752;11.348;2024-03-23T03:07:54;96695.63;;;10.18;100.00
70304;BME280;57712;48.752;11.348;2024-03-23T03:10:20;96696.09;;;10.29;100.00
70304;BME280;57712;48.752;11.348;2024-03-23T03:12:45;96693.59;;;10.34;100.00
70304;BME280;57712;48.752;11.348;2024-03-23T03:15:11;96679.81;;;10.38;100.00
70304;BME280;57712;48.752;11.348;2024-03-23T03:17:36;96686.59;;;10.33;100.00
70304;BME280;57712;48.752;11.348;2024-03-23T03:20:02;96684.50;;;10.37;100.00
70304;BME280;57712;48.752;11.348;2024-03-23T03:22:30;96674.13;;;10.45;100.00
70304;BME280;57712;48.752;11.348;2024-03-23T03:24:55;96685.59;;;10.40;100.00
70304;BME280;57712;48.752;11.348;2024-03-23T03:27:21;96675.97;;;10.48;100.00
70304;BME280;57712;48.752;11.348;2024-03-23T03:29:48;96666.88;;;10.64;100.00
70304;BME280;57712;48.752;11.348;2024-03-23T03:32:14;96663.16;;;10.58;100.00
70304;BME280;57712;48.752;11.348;2024-03-23T03:34:39;96652.44;;;10.63;100.00
70304;BME280;57712;48.752;11.348;2024-03-23T03:37:05;96648.81;;;10.66;100.00
70304;BME280;57712;48.752;11.348;2024-03-23T03:39:30;96643.31;;;10.66;100.00
70304;BME280;57712;48.752;11.348;2024-03-23T03:41:56;96646.09;;;10.54;100.00
70304;BME280;57712;48.752;11.348;2024-03-23T03:44:22;96646.19;;;10.50;100.00
70304;BME280;57712;48.752;11.348;2024-03-23T03:46:48;96645.19;;;10.57;100.00
70304;BME280;57712;48.752;11.348;2024-03-23T03:49:13;96644.19;;;10.51;100.00
70304;BME280;57712;48.752;11.348;2024-03-23T03:51:39;96650.47;;;10.38;100.00
70304;BME280;57712;48.752;11.348;2024-03-23T03:54:04;96653.88;;;10.43;100.00
70304;BME280;57712;48.752;11.348;2024-03-23T03:56:30;96648.03;;;10.40;100.00
70304;BME280;57712;48.752;11.348;2024-03-23T03:58:56;96646.84;;;10.41;100.00
70304;BME280;57712;48.752;11.348;2024-03-23T04:01:21;96638.41;;;10.49;100.00
70304;BME280;57712;48.752;11.348;2024-03-23T04:03:47;96633.34;;;10.60;100.00
70304;BME280;57712;48.752;11.348;2024-03-23T04:06:18;96622.81;;;10.71;100.00
70304;BME280;57712;48.752;11.348;2024-03-23T04:08:44;96617.13;;;10.78;100.00
70304;BME280;57712;48.752;11.348;2024-03-23T04:11:10;96616.47;;;10.74;100.00
70304;BME280;57712;48.752;11.348;2024-03-23T04:13:35;96599.69;;;10.85;100.00
70304;BME280;57712;48.752;11.348;2024-03-23T04:16:01;96601.63;;;10.97;100.00
70304;BME280;57712;48.752;11.348;2024-03-23T04:18:26;96596.16;;;10.97;100.00
70304;BME280;57712;48.752;11.348;2024-03-23T04:20:52;96610.41;;;10.92;100.00
70304;BME280;57712;48.752;11.348;2024-03-23T04:23:18;96604.03;;;10.95;100.00
70304;BME280;57712;48.752;11.348;2024-03-23T04:25:43;96597.00;;;10.94;100.00
70304;BME280;57712;48.752;11.348;2024-03-23T04:28:09;96600.53;;;10.94;100.00
70304;BME280;57712;48.752;11.348;2024-03-23T04:30:36;96596.09;;;11.10;100.00
70304;BME280;57712;48.752;11.348;2024-03-23T04:33:02;96598.59;;;11.17;100.00
70304;BME280;57712;48.752;11.348;2024-03-23T04:35:28;96598.75;;;11.01;100.00
70304;BME280;57712;48.752;11.348;2024-03-23T04:37:54;96592.06;;;11.02;100.00
70304;BME280;57712;48.752;11.348;2024-03-23T04:40:21;96589.63;;;11.04;100.00
70304;BME280;57712;48.752;11.348;2024-03-23T04:42:47;96590.16;;;11.11;100.00
70304;BME280;57712;48.752;11.348;2024-03-23T04:45:13;96591.31;;;11.23;100.00
70304;BME280;57712;48.752;11.348;2024-03-23T04:47:38;96577.75;;;11.19;100.00
70304;BME280;57712;48.752;11.348;2024-03-23T04:50:04;96587.06;;;11.22;100.00
70304;BME280;57712;48.752;11.348;2024-03-23T04:52:31;96587.06;;;11.22;100.00
70304;BME280;57712;48.752;11.348;2024-03-23T04:54:56;96584.53;;;11.15;100.00
70304;BME280;57712;48.752;11.348;2024-03-23T04:57:22;96585.22;;;11.19;100.00
70304;BME280;57712;48.752;11.348;2024-03-23T05:00:00;96573.84;;;11.08;100.00
70304;BME280;57712;48.752;11.348;2024-03-23T05:02:26;96562.56;;;11.06;100.00
70304;BME280;57712;48.752;11.348;2024-03-23T05:04:52;96572.56;;;10.99;100.00
70304;BME280;57712;48.752;11.348;2024-03-23T05:07:18;96570.28;;;10.98;100.00
70304;BME280;57712;48.752;11.348;2024-03-23T05:09:43;96560.00;;;10.89;100.00
70304;BME280;57712;48.752;11.348;2024-03-23T05:12:09;96559.81;;;10.84;100.00
70304;BME280;57712;48.752;11.348;2024-03-23T05:14:35;96559.00;;;10.83;100.00
70304;BME280;57712;48.752;11.348;2024-03-23T05:17:00;96564.31;;;10.78;100.00
70304;BME280;57712;48.752;11.348;2024-03-23T05:19:27;96558.75;;;10.68;100.00
70304;BME280;57712;48.752;11.348;2024-03-23T05:21:52;96555.81;;;10.63;100.00
70304;BME280;57712;48.752;11.348;2024-03-23T05:24:18;96547.38;;;10.57;100.00
70304;BME280;57712;48.752;11.348;2024-03-23T05:26:44;96540.81;;;10.55;100.00
70304;BME280;57712;48.752;11.348;2024-03-23T05:29:09;96549.69;;;10.46;100.00
70304;BME280;57712;48.752;11.348;2024-03-23T05:31:39;96537.00;;;10.39;100.00
70304;BME280;57712;48.752;11.348;2024-03-23T05:34:08;96531.44;;;10.30;100.00
70304;BME280;57712;48.752;11.348;2024-03-23T05:36:34;96530.78;;;10.13;100.00
70304;BME280;57712;48.752;11.348;2024-03-23T05:39:01;96531.75;;;10.07;100.00
70304;BME280;57712;48.752;11.348;2024-03-23T05:42:08;96523.69;;;10.03;100.00
70304;BME280;57712;48.752;11.348;2024-03-23T05:44:34;96512.63;;;9.81;100.00
70304;BME280;57712;48.752;11.348;2024-03-23T05:47:00;96501.78;;;9.65;100.00
70304;BME280;57712;48.752;11.348;2024-03-23T05:49:26;96488.00;;;9.56;100.00
70304;BME280;57712;48.752;11.348;2024-03-23T05:51:52;96477.94;;;9.66;100.00
70304;BME280;57712;48.752;11.348;2024-03-23T05:54:17;96479.91;;;9.65;100.00
70304;BME280;57712;48.752;11.348;2024-03-23T05:56:43;96491.19;;;9.67;100.00
70304;BME280;57712;48.752;11.348;2024-03-23T05:59:08;96485.81;;;9.51;100.00
70304;BME280;57712;48.752;11.348;2024-03-23T06:01:34;96470.06;;;9.55;100.00
70304;BME280;57712;48.752;11.348;2024-03-23T06:04:00;96475.00;;;9.60;100.00
70304;BME280;57712;48.752;11.348;2024-03-23T06:06:27;96453.47;;;9.62;100.00
70304;BME280;57712;48.752;11.348;2024-03-23T06:08:55;96445.91;;;9.66;100.00
70304;BME280;57712;48.752;11.348;2024-03-23T06:11:21;96435.41;;;9.52;100.00
70304;BME280;57712;48.752;11.348;2024-03-23T06:13:46;96446.78;;;9.76;100.00
70304;BME280;57712;48.752;11.348;2024-03-23T06:16:12;96443.25;;;9.88;100.00
70304;BME280;57712;48.752;11.348;2024-03-23T06:18:39;96449.59;;;9.98;100.00
70304;BME280;57712;48.752;11.348;2024-03-23T06:21:15;96450.22;;;10.27;100.00
70304;BME280;57712;48.752;11.348;2024-03-23T06:23:41;96444.13;;;10.45;100.00
70304;BME280;57712;48.752;11.348;2024-03-23T06:26:07;96448.19;;;10.75;100.00
70304;BME280;57712;48.752;11.348;2024-03-23T06:28:34;96447.91;;;10.82;100.00
70304;BME280;57712;48.752;11.348;2024-03-23T06:30:59;96447.66;;;10.89;100.00
70304;BME280;57712;48.752;11.348;2024-03-23T06:33:26;96439.56;;;11.08;100.00
70304;BME280;57712;48.752;11.348;2024-03-23T06:35:52;96435.91;;;11.11;100.00
70304;BME280;57712;48.752;11.348;2024-03-23T06:38:18;96440.84;;;11.16;100.00
70304;BME280;57712;48.752;11.348;2024-03-23T06:40:44;96438.56;;;11.23;100.00
70304;BME280;57712;48.752;11.348;2024-03-23T06:43:14;96437.84;;;11.32;100.00
70304;BME280;57712;48.752;11.348;2024-03-23T06:45:39;96435.91;;;11.42;100.00
70304;BME280;57712;48.752;11.348;2024-03-23T06:48:05;96434.00;;;11.51;100.00
70304;BME280;57712;48.752;11.348;2024-03-23T06:50:33;96432.47;;;11.50;100.00
70304;BME280;57712;48.752;11.348;2024-03-23T06:52:59;96440.41;;;11.57;100.00
70304;BME280;57712;48.752;11.348;2024-03-23T06:55:28;96424.56;;;11.62;100.00
70304;BME280;57712;48.752;11.348;2024-03-23T06:57:53;96427.28;;;11.52;100.00
70304;BME280;57712;48.752;11.348;2024-03-23T07:00:19;96441.63;;;11.56;100.00
70304;BME280;57712;48.752;11.348;2024-03-23T07:02:45;96493.91;;;11.31;100.00
70304;BME280;57712;48.752;11.348;2024-03-23T07:05:11;96513.25;;;11.06;100.00
70304;BME280;57712;48.752;11.348;2024-03-23T07:07:38;96517.13;;;10.95;100.00
70304;BME280;57712;48.752;11.348;2024-03-23T07:10:05;96520.25;;;10.72;100.00
70304;BME280;57712;48.752;11.348;2024-03-23T07:12:32;96531.47;;;10.99;100.00
70304;BME280;57712;48.752;11.348;2024-03-23T07:14:57;96540.81;;;10.89;100.00
70304;BME280;57712;48.752;11.348;2024-03-23T07:17:23;96556.34;;;10.92;100.00
70304;BME280;57712;48.752;11.348;2024-03-23T07:19:49;96568.22;;;10.89;100.00
70304;BME280;57712;48.752;11.348;2024-03-23T07:22:14;96573.91;;;10.82;100.00
70304;BME280;57712;48.752;11.348;2024-03-23T07:24:41;96601.69;;;10.59;100.00
70304;BME280;57712;48.752;11.348;2024-03-23T07:27:06;96589.84;;;10.62;100.00
70304;BME280;57712;48.752;11.348;2024-03-23T07:29:36;96629.44;;;10.35;100.00
70304;BME280;57712;48.752;11.348;2024-03-23T07:32:01;96623.09;;;10.26;100.00
70304;BME280;57712;48.752;11.348;2024-03-23T07:34:27;96630.84;;;10.27;100.00
70304;BME280;57712;48.752;11.348;2024-03-23T07:36:53;96633.13;;;10.16;100.00
70304;BME280;57712;48.752;11.348;2024-03-23T07:39:18;96643.38;;;9.87;100.00
70304;BME280;57712;48.752;11.348;2024-03-23T07:41:44;96641.72;;;9.76;100.00
70304;BME280;57712;48.752;11.348;2024-03-23T07:44:10;96627.28;;;9.89;100.00
70304;BME280;57712;48.752;11.348;2024-03-23T07:46:36;96642.91;;;9.75;100.00
70304;BME280;57712;48.752;11.348;2024-03-23T07:49:04;96634.91;;;9.68;100.00
70304;BME280;57712;48.752;11.348;2024-03-23T07:51:30;96622.38;;;9.83;100.00
70304;BME280;57712;48.752;11.348;2024-03-23T07:53:56;96636.25;;;9.89;100.00
70304;BME280;57712;48.752;11.348;2024-03-23T07:56:25;96644.44;;;9.76;100.00
70304;BME280;57712;48.752;11.348;2024-03-23T07:58:50;96637.16;;;9.57;100.00
70304;BME280;57712;48.752;11.348;2024-03-23T08:01:17;96644.13;;;9.74;100.00
70304;BME280;57712;48.752;11.348;2024-03-23T08:03:44;96634.56;;;9.66;100.00
70304;BME280;57712;48.752;11.348;2024-03-23T08:08:38;96648.78;;;9.61;100.00
70304;BME280;57712;48.752;11.348;2024-03-23T08:11:04;96651.72;;;9.54;100.00
70304;BME280;57712;48.752;11.348;2024-03-23T08:13:30;96653.56;;;9.57;100.00
70304;BME280;57712;48.752;11.348;2024-03-23T08:16:00;96664.28;;;9.80;100.00
70304;BME280;57712;48.752;11.348;2024-03-23T08:18:26;96658.25;;;9.86;100.00
70304;BME280;57712;48.752;11.348;2024-03-23T08:21:02;96655.84;;;9.88;100.00
70304;BME280;57712;48.752;11.348;2024-03-23T08:23:29;96661.13;;;9.95;100.00
70304;BME280;57712;48.752;11.348;2024-03-23T08:25:59;96679.78;;;9.71;100.00
70304;BME280;57712;48.752;11.348;2024-03-23T08:28:26;96667.00;;;9.80;100.00
70304;BME280;57712;48.752;11.348;2024-03-23T08:30:53;96664.19;;;10.09;100.00
70304;BME280;57712;48.752;11.348;2024-03-23T08:33:18;96652.59;;;10.18;100.00
70304;BME280;57712;48.752;11.348;2024-03-23T08:35:55;96663.94;;;10.33;100.00
70304;BME280;57712;48.752;11.348;2024-03-23T08:38:23;96672.19;;;10.17;100.00
70304;BME280;57712;48.752;11.348;2024-03-23T08:40:57;96672.47;;;10.35;100.00
70304;BME280;57712;48.752;11.348;2024-03-23T08:43:23;96688.91;;;10.22;100.00
70304;BME280;57712;48.752;11.348;2024-03-23T08:45:49;96697.00;;;10.38;100.00
70304;BME280;57712;48.752;11.348;2024-03-23T08:48:15;96704.88;;;10.49;100.00
70304;BME280;57712;48.752;11.348;2024-03-23T08:50:41;96720.34;;;10.56;100.00
70304;BME280;57712;48.752;11.348;2024-03-23T08:53:06;96724.28;;;10.55;100.00
70304;BME280;57712;48.752;11.348;2024-03-23T08:55:32;96719.47;;;10.59;100.00
70304;BME280;57712;48.752;11.348;2024-03-23T08:57:58;96711.25;;;10.84;100.00
70304;BME280;57712;48.752;11.348;2024-03-23T09:00:23;96715.53;;;10.85;100.00
70304;BME280;57712;48.752;11.348;2024-03-23T09:02:50;96722.97;;;10.72;100.00
70304;BME280;57712;48.752;11.348;2024-03-23T09:05:15;96725.81;;;10.56;100.00
70304;BME280;57712;48.752;11.348;2024-03-23T09:07:41;96713.75;;;10.79;100.00
70304;BME280;57712;48.752;11.348;2024-03-23T09:10:07;96720.44;;;10.90;100.00
70304;BME280;57712;48.752;11.348;2024-03-23T09:12:33;96720.00;;;10.92;100.00
70304;BME280;57712;48.752;11.348;2024-03-23T09:14:58;96719.22;;;11.17;100.00
70304;BME280;57712;48.752;11.348;2024-03-23T09:17:24;96728.16;;;11.30;100.00
70304;BME280;57712;48.752;11.348;2024-03-23T09:19:50;96727.75;;;11.19;100.00
70304;BME280;57712;48.752;11.348;2024-03-23T09:22:15;96727.97;;;11.12;100.00
70304;BME280;57712;48.752;11.348;2024-03-23T09:24:41;96738.34;;;11.42;100.00
70304;BME280;57712;48.752;11.348;2024-03-23T09:27:07;96743.66;;;11.93;100.00
70304;BME280;57712;48.752;11.348;2024-03-23T09:29:33;96743.03;;;11.89;100.00
70304;BME280;57712;48.752;11.348;2024-03-23T09:31:58;96754.00;;;11.89;100.00
70304;BME280;57712;48.752;11.348;2024-03-23T09:34:24;96748.06;;;11.91;100.00
70304;BME280;57712;48.752;11.348;2024-03-23T09:36:52;96767.59;;;11.93;100.00
70304;BME280;57712;48.752;11.348;2024-03-23T09:39:18;96767.94;;;11.47;100.00
70304;BME280;57712;48.752;11.348;2024-03-23T09:41:45;96760.59;;;11.44;100.00
70304;BME280;57712;48.752;11.348;2024-03-23T09:44:11;96778.13;;;11.60;100.00
70304;BME280;57712;48.752;11.348;2024-03-23T09:46:36;96786.25;;;11.50;100.00
70304;BME280;57712;48.752;11.348;2024-03-23T09:49:07;96778.19;;;11.09;100.00
70304;BME280;57712;48.752;11.348;2024-03-23T09:51:37;96791.56;;;10.81;100.00
70304;BME280;57712;48.752;11.348;2024-03-23T09:54:03;96795.72;;;10.73;100.00
70304;BME280;57712;48.752;11.348;2024-03-23T09:56:28;96804.28;;;10.75;100.00
70304;BME280;57712;48.752;11.348;2024-03-23T09:59:06;96819.63;;;11.11;100.00
70304;BME280;57712;48.752;11.348;2024-03-23T10:01:32;96833.97;;;10.77;100.00
70304;BME280;57712;48.752;11.348;2024-03-23T10:03:58;96845.44;;;10.59;100.00
70304;BME280;57712;48.752;11.348;2024-03-23T10:06:27;96843.25;;;10.54;100.00
70304;BME280;57712;48.752;11.348;2024-03-23T10:08:53;96851.31;;;10.45;100.00
70304;BME280;57712;48.752;11.348;2024-03-23T10:11:20;96855.44;;;10.36;100.00
70304;BME280;57712;48.752;11.348;2024-03-23T10:13:47;96866.44;;;10.49;100.00
70304;BME280;57712;48.752;11.348;2024-03-23T10:16:21;96867.28;;;10.33;100.00
70304;BME280;57712;48.752;11.348;2024-03-23T10:18:47;96867.56;;;10.23;100.00
70304;BME280;57712;48.752;11.348;2024-03-23T10:21:14;96867.84;;;9.96;100.00
70304;BME280;57712;48.752;11.348;2024-03-23T10:23:41;96875.59;;;10.13;100.00
70304;BME280;57712;48.752;11.348;2024-03-23T10:28:58;96876.31;;;10.01;100.00
70304;BME280;57712;48.752;11.348;2024-03-23T10:31:30;96866.31;;;10.40;100.00
70304;BME280;57712;48.752;11.348;2024-03-23T10:33:57;96875.81;;;10.35;100.00
70304;BME280;57712;48.752;11.348;2024-03-23T10:36:24;96879.88;;;9.98;100.00
70304;BME280;57712;48.752;11.348;2024-03-23T10:38:52;96896.91;;;10.06;100.00
70304;BME280;57712;48.752;11.348;2024-03-23T10:41:18;96891.44;;;9.73;100.00
70304;BME280;57712;48.752;11.348;2024-03-23T10:43:48;96902.38;;;9.57;100.00
70304;BME280;57712;48.752;11.348;2024-03-23T10:46:15;96894.53;;;9.75;100.00
70304;BME280;57712;48.752;11.348;2024-03-23T10:48:40;96894.00;;;9.97;100.00
70304;BME280;57712;48.752;11.348;2024-03-23T10:51:10;96873.66;;;9.65;100.00
70304;BME280;57712;48.752;11.348;2024-03-23T10:53:36;96864.22;;;9.99;100.00
70304;BME280;57712;48.752;11.348;2024-03-23T10:56:05;96846.03;;;10.21;100.00
70304;BME280;57712;48.752;11.348;2024-03-23T10:58:37;96851.97;;;10.20;100.00
70304;BME280;57712;48.752;11.348;2024-03-23T11:01:03;96848.50;;;10.03;100.00
70304;BME280;57712;48.752;11.348;2024-03-23T11:03:36;96852.16;;;10.41;100.00
70304;BME280;57712;48.752;11.348;2024-03-23T11:06:03;96873.56;;;10.47;100.00
70304;BME280;57712;48.752;11.348;2024-03-23T11:08:33;96896.25;;;10.31;100.00
70304;BME280;57712;48.752;11.348;2024-03-23T11:11:19;96894.25;;;10.77;100.00
70304;BME280;57712;48.752;11.348;2024-03-23T11:13:51;96894.38;;;10.44;100.00
70304;BME280;57712;48.752;11.348;2024-03-23T11:16:27;96903.19;;;10.64;100.00
70304;BME280;57712;48.752;11.348;2024-03-23T11:21:59;96905.78;;;10.10;100.00
70304;BME280;57712;48.752;11.348;2024-03-23T11:24:25;96921.53;;;9.90;100.00
70304;BME280;57712;48.752;11.348;2024-03-23T11:26:50;96930.94;;;9.72;100.00
70304;BME280;57712;48.752;11.348;2024-03-23T11:29:17;96922.47;;;9.99;100.00
70304;BME280;57712;48.752;11.348;2024-03-23T11:31:51;96924.13;;;9.80;100.00
70304;BME280;57712;48.752;11.348;2024-03-23T11:34:18;96934.44;;;9.73;100.00
70304;BME280;57712;48.752;11.348;2024-03-23T11:36:45;96944.44;;;9.79;100.00
70304;BME280;57712;48.752;11.348;2024-03-23T11:39:18;96944.78;;;9.65;100.00
70304;BME280;57712;48.752;11.348;2024-03-23T11:41:56;96942.06;;;9.81;100.00
70304;BME280;57712;48.752;11.348;2024-03-23T11:44:26;96955.72;;;9.65;100.00
70304;BME280;57712;48.752;11.348;2024-03-23T11:46:52;96967.31;;;9.53;100.00
70304;BME280;57712;48.752;11.348;2024-03-23T11:51:50;96974.25;;;9.58;100.00
70304;BME280;57712;48.752;11.348;2024-03-23T11:54:16;96952.72;;;10.08;100.00
70304;BME280;57712;48.752;11.348;2024-03-23T11:56:59;96927.88;;;10.03;100.00
70304;BME280;57712;48.752;11.348;2024-03-23T11:59:35;96940.16;;;9.78;100.00
70304;BME280;57712;48.752;11.348;2024-03-23T12:02:12;96949.47;;;10.30;100.00
70304;BME280;57712;48.752;11.348;2024-03-23T12:04:41;96939.13;;;10.66;100.00
70304;BME280;57712;48.752;11.348;2024-03-23T12:07:14;96939.66;;;10.90;97.29
70304;BME280;57712;48.752;11.348;2024-03-23T12:09:40;96931.84;;;10.76;95.98
70304;BME280;57712;48.752;11.348;2024-03-23T12:12:16;96941.56;;;10.48;95.35
70304;BME280;57712;48.752;11.348;2024-03-23T12:15:00;96933.94;;;10.27;91.65
70304;BME280;57712;48.752;11.348;2024-03-23T12:17:26;96929.38;;;10.20;88.41
70304;BME280;57712;48.752;11.348;2024-03-23T12:19:52;96905.88;;;10.23;87.15
70304;BME280;57712;48.752;11.348;2024-03-23T12:22:22;96911.34;;;10.06;83.47
70304;BME280;57712;48.752;11.348;2024-03-23T12:24:48;96925.41;;;10.21;81.65
70304;BME280;57712;48.752;11.348;2024-03-23T12:27:14;96931.91;;;10.73;83.45
70304;BME280;57712;48.752;11.348;2024-03-23T12:29:40;96918.63;;;11.00;81.75
70304;BME280;57712;48.752;11.348;2024-03-23T12:32:07;96921.81;;;10.98;80.13
70304;BME280;57712;48.752;11.348;2024-03-23T12:34:33;96916.00;;;10.96;77.83
70304;BME280;57712;48.752;11.348;2024-03-23T12:36:59;96907.72;;;11.25;77.31
70304;BME280;57712;48.752;11.348;2024-03-23T12:39:24;96906.25;;;11.21;76.75
70304;BME280;57712;48.752;11.348;2024-03-23T12:41:50;96905.97;;;10.77;78.07
70304;BME280;57712;48.752;11.348;2024-03-23T12:44:18;96907.16;;;10.63;76.56
70304;BME280;57712;48.752;11.348;2024-03-23T12:46:44;96908.28;;;10.50;77.11
70304;BME280;57712;48.752;11.348;2024-03-23T12:49:10;96909.91;;;10.76;79.81
70304;BME280;57712;48.752;11.348;2024-03-23T12:51:35;96906.50;;;10.72;78.31
70304;BME280;57712;48.752;11.348;2024-03-23T12:54:01;96905.50;;;10.66;75.38
70304;BME280;57712;48.752;11.348;2024-03-23T12:56:26;96914.81;;;10.39;76.02
70304;BME280;57712;48.752;11.348;2024-03-23T12:58:56;96926.16;;;10.25;77.82
70304;BME280;57712;48.752;11.348;2024-03-23T13:01:26;96921.78;;;9.95;76.82
70304;BME280;57712;48.752;11.348;2024-03-23T13:03:52;96927.69;;;9.94;78.13
70304;BME280;57712;48.752;11.348;2024-03-23T13:06:18;96932.47;;;9.90;78.08
70304;BME280;57712;48.752;11.348;2024-03-23T13:08:45;96934.34;;;9.76;82.09
70304;BME280;57712;48.752;11.348;2024-03-23T13:11:11;96962.44;;;9.44;91.56
70304;BME280;57712;48.752;11.348;2024-03-23T13:13:37;96953.25;;;8.99;97.24
70304;BME280;57712;48.752;11.348;2024-03-23T13:16:03;96955.44;;;9.07;100.00
70304;BME280;57712;48.752;11.348;2024-03-23T13:18:32;96970.78;;;8.38;100.00
70304;BME280;57712;48.752;11.348;2024-03-23T13:20:58;96978.47;;;8.20;100.00
70304;BME280;57712;48.752;11.348;2024-03-23T13:23:24;96978.59;;;8.13;100.00
70304;BME280;57712;48.752;11.348;2024-03-23T13:25:54;96958.69;;;7.92;100.00
70304;BME280;57712;48.752;11.348;2024-03-23T13:28:21;96969.22;;;7.90;100.00
70304;BME280;57712;48.752;11.348;2024-03-23T13:30:54;96962.38;;;7.78;100.00
70304;BME280;57712;48.752;11.348;2024-03-23T13:33:19;96966.81;;;7.69;100.00
70304;BME280;57712;48.752;11.348;2024-03-23T13:35:52;96967.66;;;7.89;100.00
70304;BME280;57712;48.752;11.348;2024-03-23T13:38:18;96951.66;;;7.68;100.00
70304;BME280;57712;48.752;11.348;2024-03-23T13:40:55;96961.16;;;7.83;100.00
70304;BME280;57712;48.752;11.348;2024-03-23T13:43:22;96964.72;;;8.03;100.00
70304;BME280;57712;48.752;11.348;2024-03-23T13:45:51;96965.78;;;8.09;100.00
70304;BME280;57712;48.752;11.348;2024-03-23T13:48:23;96964.59;;;8.10;100.00